Thursday, June 21, 2018, 12:15 PM EDT
Back to Local

KWST, Westerly State Airport

Location: Westerly, RI, United States Lat: 41.35
Local Time: 12:15 PM EDT (16:15 GMT) Lon: -71.8
Time Zone: US/Eastern Elev: 82 ft

Show me the last for .
Show Decoded

2018-06-21 11:53 METAR KWST 211553Z AUTO 15006KT 10SM FEW018 BKN085 23/19 A2979 RMK AO2 SLP088
                 T02280194 =
2018-06-21 10:53 METAR KWST 211453Z AUTO 09005KT 10SM FEW008 22/19 A2980 RMK AO2 SLP089 60001
                 T02170189 53002 =
2018-06-21 10:37 METAR KWST 211437Z AUTO 06003KT 10SM SCT008 22/19 A2980 RMK AO2 T02170189 =
2018-06-21 10:15 METAR KWST 211415Z AUTO 06004KT 10SM BKN008 BKN070 21/18 A2980 RMK AO2 T02060183
                 =
2018-06-21 09:53 METAR KWST 211353Z AUTO 08005KT 10SM FEW007 BKN070 20/18 A2979 RMK AO2 SLP088
                 T02000183 =
2018-06-21 09:50 METAR KWST 211350Z AUTO 07003KT 10SM FEW007 BKN070 20/18 A2979 RMK AO2 =
2018-06-21 08:53 METAR KWST 211253Z AUTO 08004KT 10SM OVC065 19/18 A2979 RMK AO2 RAE16 SLP088
                 P0001 T01890178 =
2018-06-21 07:53 METAR KWST 211153Z AUTO 00000KT 10SM -RA FEW048 BKN065 OVC100 18/18 A2978 RMK
                 AO2 RAB35 SLP084 P0000 60020 70020 T01830178 10206 20178 53001 =
2018-06-21 06:53 METAR KWST 211053Z AUTO 00000KT 10SM FEW050 OVC075 18/18 A2977 RMK AO2 RAE01
                 SLP079 P0000 T01830178 =
2018-06-21 05:53 METAR KWST 210953Z AUTO 19004KT 7SM -RA SCT060 OVC080 18/17 A2977 RMK AO2 SLP081
                 P0009 T01780172 =
2018-06-21 05:14 METAR KWST 210914Z AUTO 20005KT 3SM RA BR SCT050 BKN060 OVC085 18/18 A2977 RMK
                 AO2 P0008 T01830178 =
2018-06-21 05:03 METAR KWST 210903Z AUTO 21004KT 2 1/2SM RA BR OVC050 18/18 A2977 RMK AO2 P0004
                 T01830178 =
2018-06-21 04:53 METAR KWST 210853Z AUTO 23005KT 3SM RA BR FEW005 OVC050 19/18 A2978 RMK AO2
                 SLP083 P0006 60011 T01890178 55001 =
2018-06-21 04:20 METAR KWST 210820Z AUTO 23008KT 6SM -RA BR SCT003 SCT023 OVC060 19/19 A2977 RMK
                 AO2 P0001 T01940194 =
2018-06-21 03:53 METAR KWST 210753Z AUTO 23007KT 5SM -RA BR BKN003 OVC007 20/19 A2977 RMK AO2
                 SLP080 P0005 T02000194 =
2018-06-21 03:27 METAR KWST 210727Z AUTO 23004KT 7SM -RA BKN007 OVC070 19/19 A2978 RMK AO2 P0003
                 T01940189 =
2018-06-21 03:11 METAR KWST 210711Z AUTO 25003KT 5SM -RA BR SCT007 BKN070 BKN110 19/19 A2978 RMK
                 AO2 P0002 T01940194 =
2018-06-21 02:53 METAR KWST 210653Z AUTO 24003KT 8SM -RA FEW075 BKN110 20/19 A2978 RMK AO2 RAB12
                 SLP082 P0000 T02000189 =
2018-06-21 01:53 METAR KWST 210553Z AUTO 22004KT 10SM BKN095 OVC120 21/18 A2978 RMK AO2 SLP084
                 60000 T02060183 10211 20200 58009 =
2018-06-21 00:53 METAR KWST 210453Z AUTO 21005KT 10SM OVC100 21/18 A2979 RMK AO2 SLP088 T02060183
                 402500133 =
2018-06-20 23:53 METAR KWST 210353Z AUTO 18003KT 10SM OVC100 21/19 A2981 RMK AO2 SLP092 T02060189
                 =
2018-06-20 22:53 METAR KWST 210253Z AUTO 23003KT 10SM OVC110 20/18 A2981 RMK AO2 RAE00 SLP093
                 P0000 60000 T02000183 50002 =
2018-06-20 21:53 METAR KWST 210153Z AUTO 22005KT 10SM -RA BKN120 20/18 A2982 RMK AO2 RAB50 SLP096
                 P0000 T02000183 =
2018-06-20 20:53 METAR KWST 210053Z AUTO VRB04KT 10SM CLR 21/19 A2980 RMK AO2 SLP091 T02060189 =
2018-06-20 19:53 METAR KWST 202353Z AUTO 22005KT 10SM CLR 21/19 A2980 RMK AO2 SLP091 T02110189
                 10250 20206 56009 =
2018-06-20 18:53 METAR KWST 202253Z AUTO 20009KT 10SM CLR 22/19 A2980 RMK AO2 SLP091 T02170189 =
2018-06-20 17:53 METAR KWST 202153Z AUTO 21007KT 10SM CLR 23/19 A2981 RMK AO2 SLP094 T02330189 =
2018-06-20 16:53 METAR KWST 202053Z AUTO 21008KT 10SM CLR 24/18 A2983 RMK AO2 SLP100 T02440183
                 58009 =
2018-06-20 15:53 METAR KWST 201953Z AUTO 19010KT 10SM CLR 25/18 A2984 RMK AO2 SLP104 T02500178 =
2018-06-20 14:53 METAR KWST 201853Z AUTO 20009KT 10SM CLR 25/17 A2985 RMK AO2 SLP107 T02500172 =
2018-06-20 13:53 METAR KWST 201753Z AUTO 18008KT 10SM CLR 23/17 A2986 RMK AO2 SLP109 T02330172
                 10239 20200 58014 =
2018-06-20 12:53 METAR KWST 201653Z AUTO 17007KT 10SM CLR 24/16 A2988 RMK AO2 SLP116 T02390156 =

Support USWX by starting your Amazon purchase here.